sensor_id;sensor_type;location;lat;lon;timestamp;temperature;humidity
52058;DHT22;38063;53.210;6.504;2023-11-21T00:01:54;9.10;99.90
52058;DHT22;38063;53.210;6.504;2023-11-21T00:04:20;9.10;99.90
52058;DHT22;38063;53.210;6.504;2023-11-21T00:06:46;9.10;99.90
52058;DHT22;38063;53.210;6.504;2023-11-21T00:09:13;9.10;99.90
52058;DHT22;38063;53.210;6.504;2023-11-21T00:11:41;9.10;99.90
52058;DHT22;38063;53.210;6.504;2023-11-21T00:14:07;9.10;99.90
52058;DHT22;38063;53.210;6.504;2023-11-21T00:16:33;9.10;99.90
52058;DHT22;38063;53.210;6.504;2023-11-21T00:18:59;9.10;99.90
52058;DHT22;38063;53.210;6.504;2023-11-21T00:21:25;9.70;99.90
52058;DHT22;38063;53.210;6.504;2023-11-21T00:23:51;9.10;99.90
52058;DHT22;38063;53.210;6.504;2023-11-21T00:26:16;9.20;99.90
52058;DHT22;38063;53.210;6.504;2023-11-21T00:28:42;9.20;99.90
52058;DHT22;38063;53.210;6.504;2023-11-21T00:31:08;9.20;99.90
52058;DHT22;38063;53.210;6.504;2023-11-21T00:33:33;9.40;99.90
52058;DHT22;38063;53.210;6.504;2023-11-21T00:35:59;9.20;99.90
52058;DHT22;38063;53.210;6.504;2023-11-21T00:38:26;9.20;99.90
52058;DHT22;38063;53.210;6.504;2023-11-21T00:40:53;9.20;99.90
52058;DHT22;38063;53.210;6.504;2023-11-21T00:43:22;9.10;99.90
52058;DHT22;38063;53.210;6.504;2023-11-21T00:45:48;9.10;99.90
52058;DHT22;38063;53.210;6.504;2023-11-21T00:48:14;9.10;99.90
52058;DHT22;38063;53.210;6.504;2023-11-21T00:50:40;9.10;99.90
52058;DHT22;38063;53.210;6.504;2023-11-21T00:53:06;9.10;99.90
52058;DHT22;38063;53.210;6.504;2023-11-21T00:55:33;9.10;99.90
52058;DHT22;38063;53.210;6.504;2023-11-21T00:57:59;9.10;99.90
52058;DHT22;38063;53.210;6.504;2023-11-21T01:00:25;9.10;99.90
52058;DHT22;38063;53.210;6.504;2023-11-21T01:02:51;9.10;99.90
52058;DHT22;38063;53.210;6.504;2023-11-21T01:05:17;9.10;99.90
52058;DHT22;38063;53.210;6.504;2023-11-21T01:07:43;9.20;99.90
52058;DHT22;38063;53.210;6.504;2023-11-21T01:10:09;9.20;99.90
52058;DHT22;38063;53.210;6.504;2023-11-21T01:12:36;9.10;99.90
52058;DHT22;38063;53.210;6.504;2023-11-21T01:15:03;9.10;99.90
52058;DHT22;38063;53.210;6.504;2023-11-21T01:17:29;9.20;99.90
52058;DHT22;38063;53.210;6.504;2023-11-21T01:19:55;9.20;99.90
52058;DHT22;38063;53.210;6.504;2023-11-21T01:22:21;9.20;99.90
52058;DHT22;38063;53.210;6.504;2023-11-21T01:24:52;9.20;99.90
52058;DHT22;38063;53.210;6.504;2023-11-21T01:27:17;9.20;99.90
52058;DHT22;38063;53.210;6.504;2023-11-21T01:29:44;9.20;99.90
52058;DHT22;38063;53.210;6.504;2023-11-21T01:32:10;9.20;99.90
52058;DHT22;38063;53.210;6.504;2023-11-21T01:34:36;9.20;99.90
52058;DHT22;38063;53.210;6.504;2023-11-21T01:37:01;9.20;99.90
52058;DHT22;38063;53.210;6.504;2023-11-21T01:39:30;9.20;99.90
52058;DHT22;38063;53.210;6.504;2023-11-21T01:41:55;9.20;99.90
52058;DHT22;38063;53.210;6.504;2023-11-21T01:44:24;9.10;99.90
52058;DHT22;38063;53.210;6.504;2023-11-21T01:46:50;9.20;99.90
52058;DHT22;38063;53.210;6.504;2023-11-21T01:49:16;9.10;99.90
52058;DHT22;38063;53.210;6.504;2023-11-21T01:51:44;9.20;99.90
52058;DHT22;38063;53.210;6.504;2023-11-21T01:54:12;9.20;99.90
52058;DHT22;38063;53.210;6.504;2023-11-21T01:56:38;9.20;99.90
52058;DHT22;38063;53.210;6.504;2023-11-21T01:59:05;9.20;99.90
52058;DHT22;38063;53.210;6.504;2023-11-21T02:01:33;9.20;99.90
52058;DHT22;38063;53.210;6.504;2023-11-21T02:03:59;9.10;99.90
52058;DHT22;38063;53.210;6.504;2023-11-21T02:06:24;9.20;99.90
52058;DHT22;38063;53.210;6.504;2023-11-21T02:08:51;9.20;99.90
52058;DHT22;38063;53.210;6.504;2023-11-21T02:11:17;9.20;99.90
52058;DHT22;38063;53.210;6.504;2023-11-21T02:13:44;9.20;99.90
52058;DHT22;38063;53.210;6.504;2023-11-21T02:16:11;9.20;99.90
52058;DHT22;38063;53.210;6.504;2023-11-21T02:18:39;9.20;99.90
52058;DHT22;38063;53.210;6.504;2023-11-21T02:21:05;9.20;99.90
52058;DHT22;38063;53.210;6.504;2023-11-21T02:23:30;9.20;99.90
52058;DHT22;38063;53.210;6.504;2023-11-21T02:25:56;9.20;99.90
52058;DHT22;38063;53.210;6.504;2023-11-21T02:28:22;9.20;99.90
52058;DHT22;38063;53.210;6.504;2023-11-21T02:30:52;9.20;99.90
52058;DHT22;38063;53.210;6.504;2023-11-21T02:33:28;9.30;99.90
52058;DHT22;38063;53.210;6.504;2023-11-21T02:35:54;9.20;99.90
52058;DHT22;38063;53.210;6.504;2023-11-21T02:38:21;9.20;99.90
52058;DHT22;38063;53.210;6.504;2023-11-21T02:40:47;9.20;99.90
52058;DHT22;38063;53.210;6.504;2023-11-21T02:43:14;9.20;99.90
52058;DHT22;38063;53.210;6.504;2023-11-21T02:45:40;9.20;99.90
52058;DHT22;38063;53.210;6.504;2023-11-21T02:48:07;9.20;99.90
52058;DHT22;38063;53.210;6.504;2023-11-21T02:50:33;9.20;99.90
52058;DHT22;38063;53.210;6.504;2023-11-21T02:53:00;9.20;99.90
52058;DHT22;38063;53.210;6.504;2023-11-21T02:55:27;9.40;99.90
52058;DHT22;38063;53.210;6.504;2023-11-21T02:57:53;9.20;99.90
52058;DHT22;38063;53.210;6.504;2023-11-21T03:00:19;9.20;99.90
52058;DHT22;38063;53.210;6.504;2023-11-21T03:02:45;9.20;99.90
52058;DHT22;38063;53.210;6.504;2023-11-21T03:05:12;9.20;99.90
52058;DHT22;38063;53.210;6.504;2023-11-21T03:07:38;9.20;99.90
52058;DHT22;38063;53.210;6.504;2023-11-21T03:10:04;9.20;99.90
52058;DHT22;38063;53.210;6.504;2023-11-21T03:12:30;9.10;99.90
52058;DHT22;38063;53.210;6.504;2023-11-21T03:14:56;9.20;99.90
52058;DHT22;38063;53.210;6.504;2023-11-21T03:17:21;9.20;99.90
52058;DHT22;38063;53.210;6.504;2023-11-21T03:19:47;9.20;99.90
52058;DHT22;38063;53.210;6.504;2023-11-21T03:22:13;9.20;99.90
52058;DHT22;38063;53.210;6.504;2023-11-21T03:24:38;9.20;99.90
52058;DHT22;38063;53.210;6.504;2023-11-21T03:27:04;9.20;99.90
52058;DHT22;38063;53.210;6.504;2023-11-21T03:29:30;9.20;99.90
52058;DHT22;38063;53.210;6.504;2023-11-21T03:31:55;9.20;99.90
52058;DHT22;38063;53.210;6.504;2023-11-21T03:34:26;9.20;99.90
52058;DHT22;38063;53.210;6.504;2023-11-21T03:36:52;9.20;99.90
52058;DHT22;38063;53.210;6.504;2023-11-21T03:39:19;9.20;99.90
52058;DHT22;38063;53.210;6.504;2023-11-21T03:41:45;9.20;99.90
52058;DHT22;38063;53.210;6.504;2023-11-21T03:44:11;9.20;99.90
52058;DHT22;38063;53.210;6.504;2023-11-21T03:46:37;9.60;99.90
52058;DHT22;38063;53.210;6.504;2023-11-21T03:49:02;9.20;99.90
52058;DHT22;38063;53.210;6.504;2023-11-21T03:51:28;9.20;99.90
52058;DHT22;38063;53.210;6.504;2023-11-21T03:53:53;9.20;99.90
52058;DHT22;38063;53.210;6.504;2023-11-21T03:56:19;9.20;99.90
52058;DHT22;38063;53.210;6.504;2023-11-21T03:58:48;9.10;99.90
52058;DHT22;38063;53.210;6.504;2023-11-21T04:01:24;9.20;99.90
52058;DHT22;38063;53.210;6.504;2023-11-21T04:03:50;9.20;99.90
52058;DHT22;38063;53.210;6.504;2023-11-21T04:06:17;9.10;99.90
52058;DHT22;38063;53.210;6.504;2023-11-21T04:08:43;9.10;99.90
52058;DHT22;38063;53.210;6.504;2023-11-21T04:11:10;9.10;99.90
52058;DHT22;38063;53.210;6.504;2023-11-21T04:13:38;9.10;99.90
52058;DHT22;38063;53.210;6.504;2023-11-21T04:16:05;9.20;99.90
52058;DHT22;38063;53.210;6.504;2023-11-21T04:18:31;9.10;99.90
52058;DHT22;38063;53.210;6.504;2023-11-21T04:20:57;9.20;99.90
52058;DHT22;38063;53.210;6.504;2023-11-21T04:23:23;9.20;99.90
52058;DHT22;38063;53.210;6.504;2023-11-21T04:25:48;9.20;99.90
52058;DHT22;38063;53.210;6.504;2023-11-21T04:28:14;9.10;99.90
52058;DHT22;38063;53.210;6.504;2023-11-21T04:30:40;9.10;99.90
52058;DHT22;38063;53.210;6.504;2023-11-21T04:33:06;9.20;99.90
52058;DHT22;38063;53.210;6.504;2023-11-21T04:35:33;9.20;99.90
52058;DHT22;38063;53.210;6.504;2023-11-21T04:37:58;9.20;99.90
52058;DHT22;38063;53.210;6.504;2023-11-21T04:40:24;9.20;99.90
52058;DHT22;38063;53.210;6.504;2023-11-21T04:42:52;9.20;99.90
52058;DHT22;38063;53.210;6.504;2023-11-21T04:45:18;9.20;99.90
52058;DHT22;38063;53.210;6.504;2023-11-21T04:47:43;9.10;99.90
52058;DHT22;38063;53.210;6.504;2023-11-21T04:50:09;9.20;99.90
52058;DHT22;38063;53.210;6.504;2023-11-21T04:52:35;9.10;99.90
52058;DHT22;38063;53.210;6.504;2023-11-21T04:55:01;9.20;99.90
52058;DHT22;38063;53.210;6.504;2023-11-21T04:57:27;9.10;99.90
52058;DHT22;38063;53.210;6.504;2023-11-21T04:59:54;9.10;99.90
52058;DHT22;38063;53.210;6.504;2023-11-21T05:02:19;9.10;99.90
52058;DHT22;38063;53.210;6.504;2023-11-21T05:04:47;9.10;99.90
52058;DHT22;38063;53.210;6.504;2023-11-21T05:07:12;9.10;99.90
52058;DHT22;38063;53.210;6.504;2023-11-21T05:09:44;9.10;99.90
52058;DHT22;38063;53.210;6.504;2023-11-21T05:12:12;9.20;99.90
52058;DHT22;38063;53.210;6.504;2023-11-21T05:14:38;9.00;99.90
52058;DHT22;38063;53.210;6.504;2023-11-21T05:17:03;9.10;99.90
52058;DHT22;38063;53.210;6.504;2023-11-21T05:19:33;9.00;99.90
52058;DHT22;38063;53.210;6.504;2023-11-21T05:22:00;9.00;99.90
52058;DHT22;38063;53.210;6.504;2023-11-21T05:24:26;9.10;99.90
52058;DHT22;38063;53.210;6.504;2023-11-21T05:26:52;9.00;99.90
52058;DHT22;38063;53.210;6.504;2023-11-21T05:29:18;9.00;99.90
52058;DHT22;38063;53.210;6.504;2023-11-21T05:31:44;9.00;99.90
52058;DHT22;38063;53.210;6.504;2023-11-21T05:34:09;9.00;99.90
52058;DHT22;38063;53.210;6.504;2023-11-21T05:36:35;9.00;99.90
52058;DHT22;38063;53.210;6.504;2023-11-21T05:39:00;8.90;99.90
52058;DHT22;38063;53.210;6.504;2023-11-21T05:41:26;8.90;99.90
52058;DHT22;38063;53.210;6.504;2023-11-21T05:43:52;9.00;99.90
52058;DHT22;38063;53.210;6.504;2023-11-21T05:46:19;9.00;99.90
52058;DHT22;38063;53.210;6.504;2023-11-21T05:48:45;8.90;99.90
52058;DHT22;38063;53.210;6.504;2023-11-21T05:51:11;8.90;99.90
52058;DHT22;38063;53.210;6.504;2023-11-21T05:53:39;9.00;99.90
52058;DHT22;38063;53.210;6.504;2023-11-21T05:56:05;9.10;99.90
52058;DHT22;38063;53.210;6.504;2023-11-21T05:58:30;9.00;99.90
52058;DHT22;38063;53.210;6.504;2023-11-21T06:00:56;8.90;99.90
52058;DHT22;38063;53.210;6.504;2023-11-21T06:03:23;9.00;99.90
52058;DHT22;38063;53.210;6.504;2023-11-21T06:05:48;8.90;99.90
52058;DHT22;38063;53.210;6.504;2023-11-21T06:08:14;9.00;99.90
52058;DHT22;38063;53.210;6.504;2023-11-21T06:10:42;9.00;99.90
52058;DHT22;38063;53.210;6.504;2023-11-21T06:13:09;9.00;99.90
52058;DHT22;38063;53.210;6.504;2023-11-21T06:15:36;9.00;99.90
52058;DHT22;38063;53.210;6.504;2023-11-21T06:18:01;9.00;99.90
52058;DHT22;38063;53.210;6.504;2023-11-21T06:20:27;9.00;99.90
52058;DHT22;38063;53.210;6.504;2023-11-21T06:22:53;9.00;99.90
52058;DHT22;38063;53.210;6.504;2023-11-21T06:25:19;9.00;99.90
52058;DHT22;38063;53.210;6.504;2023-11-21T06:27:46;8.90;99.90
52058;DHT22;38063;53.210;6.504;2023-11-21T06:30:13;8.90;99.90
52058;DHT22;38063;53.210;6.504;2023-11-21T06:32:39;8.90;99.90
52058;DHT22;38063;53.210;6.504;2023-11-21T06:35:06;8.90;99.90
52058;DHT22;38063;53.210;6.504;2023-11-21T06:37:32;8.90;99.90
52058;DHT22;38063;53.210;6.504;2023-11-21T06:39:59;8.80;99.90
52058;DHT22;38063;53.210;6.504;2023-11-21T06:42:25;8.80;99.90
52058;DHT22;38063;53.210;6.504;2023-11-21T06:44:51;8.80;99.90
52058;DHT22;38063;53.210;6.504;2023-11-21T06:47:18;8.80;99.90
52058;DHT22;38063;53.210;6.504;2023-11-21T06:49:46;8.80;99.90
52058;DHT22;38063;53.210;6.504;2023-11-21T06:52:13;8.70;99.90
52058;DHT22;38063;53.210;6.504;2023-11-21T06:54:39;8.70;99.90
52058;DHT22;38063;53.210;6.504;2023-11-21T06:57:05;8.80;99.90
52058;DHT22;38063;53.210;6.504;2023-11-21T06:59:30;8.70;99.90
52058;DHT22;38063;53.210;6.504;2023-11-21T07:01:56;8.80;99.90
52058;DHT22;38063;53.210;6.504;2023-11-21T07:04:22;8.80;99.90
52058;DHT22;38063;53.210;6.504;2023-11-21T07:06:48;8.70;99.90
52058;DHT22;38063;53.210;6.504;2023-11-21T07:09:13;8.70;99.90
52058;DHT22;38063;53.210;6.504;2023-11-21T07:11:41;8.60;99.90
52058;DHT22;38063;53.210;6.504;2023-11-21T07:14:07;8.60;99.90
52058;DHT22;38063;53.210;6.504;2023-11-21T07:16:36;8.60;99.90
52058;DHT22;38063;53.210;6.504;2023-11-21T07:19:04;8.60;99.90
52058;DHT22;38063;53.210;6.504;2023-11-21T07:21:32;8.50;99.90
52058;DHT22;38063;53.210;6.504;2023-11-21T07:23:59;8.50;99.90
52058;DHT22;38063;53.210;6.504;2023-11-21T07:26:26;8.50;99.90
52058;DHT22;38063;53.210;6.504;2023-11-21T07:28:53;8.50;99.90
52058;DHT22;38063;53.210;6.504;2023-11-21T07:31:19;8.50;99.90
52058;DHT22;38063;53.210;6.504;2023-11-21T07:33:47;8.50;99.90
52058;DHT22;38063;53.210;6.504;2023-11-21T07:36:14;8.60;99.90
52058;DHT22;38063;53.210;6.504;2023-11-21T07:38:40;8.60;99.90
52058;DHT22;38063;53.210;6.504;2023-11-21T07:41:05;8.50;99.90
52058;DHT22;38063;53.210;6.504;2023-11-21T07:43:36;8.40;99.90
52058;DHT22;38063;53.210;6.504;2023-11-21T07:46:02;8.40;99.90
52058;DHT22;38063;53.210;6.504;2023-11-21T07:48:32;8.40;99.90
52058;DHT22;38063;53.210;6.504;2023-11-21T07:50:58;8.60;99.90
52058;DHT22;38063;53.210;6.504;2023-11-21T07:53:24;8.30;99.90
52058;DHT22;38063;53.210;6.504;2023-11-21T07:55:55;8.30;99.90
52058;DHT22;38063;53.210;6.504;2023-11-21T07:58:21;8.40;99.90
52058;DHT22;38063;53.210;6.504;2023-11-21T08:00:47;8.40;99.90
52058;DHT22;38063;53.210;6.504;2023-11-21T08:03:15;8.40;99.90
52058;DHT22;38063;53.210;6.504;2023-11-21T08:05:41;8.40;99.90
52058;DHT22;38063;53.210;6.504;2023-11-21T08:08:07;8.40;99.90
52058;DHT22;38063;53.210;6.504;2023-11-21T08:10:33;8.40;99.90
52058;DHT22;38063;53.210;6.504;2023-11-21T08:12:59;8.30;99.90
52058;DHT22;38063;53.210;6.504;2023-11-21T08:15:25;8.30;99.90
52058;DHT22;38063;53.210;6.504;2023-11-21T08:17:50;8.30;99.90
52058;DHT22;38063;53.210;6.504;2023-11-21T08:20:16;8.30;99.90
52058;DHT22;38063;53.210;6.504;2023-11-21T08:22:44;8.30;99.90
52058;DHT22;38063;53.210;6.504;2023-11-21T08:25:10;8.30;99.90
52058;DHT22;38063;53.210;6.504;2023-11-21T08:27:35;8.30;99.90
52058;DHT22;38063;53.210;6.504;2023-11-21T08:30:03;8.30;99.90
52058;DHT22;38063;53.210;6.504;2023-11-21T08:32:29;8.30;99.90
52058;DHT22;38063;53.210;6.504;2023-11-21T08:34:58;8.30;99.90
52058;DHT22;38063;53.210;6.504;2023-11-21T08:37:23;8.30;99.90
52058;DHT22;38063;53.210;6.504;2023-11-21T08:39:49;8.30;99.90
52058;DHT22;38063;53.210;6.504;2023-11-21T08:42:15;8.60;99.90
52058;DHT22;38063;53.210;6.504;2023-11-21T08:44:41;8.30;99.90
52058;DHT22;38063;53.210;6.504;2023-11-21T08:47:07;8.20;99.90
52058;DHT22;38063;53.210;6.504;2023-11-21T08:49:32;8.20;99.90
52058;DHT22;38063;53.210;6.504;2023-11-21T08:51:58;8.30;99.90
52058;DHT22;38063;53.210;6.504;2023-11-21T08:54:25;8.20;99.90
52058;DHT22;38063;53.210;6.504;2023-11-21T08:56:54;8.30;99.90
52058;DHT22;38063;53.210;6.504;2023-11-21T08:59:20;8.30;99.90
52058;DHT22;38063;53.210;6.504;2023-11-21T09:01:47;8.30;99.90
52058;DHT22;38063;53.210;6.504;2023-11-21T09:04:13;8.30;99.90
52058;DHT22;38063;53.210;6.504;2023-11-21T09:06:41;8.30;99.90
52058;DHT22;38063;53.210;6.504;2023-11-21T09:09:07;8.30;99.90
52058;DHT22;38063;53.210;6.504;2023-11-21T09:11:36;8.30;99.90
52058;DHT22;38063;53.210;6.504;2023-11-21T09:14:02;8.30;99.90
52058;DHT22;38063;53.210;6.504;2023-11-21T09:16:28;8.30;99.90
52058;DHT22;38063;53.210;6.504;2023-11-21T09:18:54;8.40;99.90
52058;DHT22;38063;53.210;6.504;2023-11-21T09:21:20;8.30;99.90
52058;DHT22;38063;53.210;6.504;2023-11-21T09:23:46;8.30;99.90
52058;DHT22;38063;53.210;6.504;2023-11-21T09:26:11;8.30;99.90
52058;DHT22;38063;53.210;6.504;2023-11-21T09:28:37;8.30;99.90
52058;DHT22;38063;53.210;6.504;2023-11-21T09:31:04;8.30;99.90
52058;DHT22;38063;53.210;6.504;2023-11-21T09:33:30;8.30;99.90
52058;DHT22;38063;53.210;6.504;2023-11-21T09:35:57;8.80;99.90
52058;DHT22;38063;53.210;6.504;2023-11-21T09:38:23;8.40;99.90
52058;DHT22;38063;53.210;6.504;2023-11-21T09:40:49;8.40;99.90
52058;DHT22;38063;53.210;6.504;2023-11-21T09:43:20;8.40;99.90
52058;DHT22;38063;53.210;6.504;2023-11-21T09:45:47;8.30;99.90
52058;DHT22;38063;53.210;6.504;2023-11-21T09:48:14;8.30;99.90
52058;DHT22;38063;53.210;6.504;2023-11-21T09:50:42;8.30;99.90
52058;DHT22;38063;53.210;6.504;2023-11-21T09:53:19;8.20;99.90
52058;DHT22;38063;53.210;6.504;2023-11-21T09:55:51;8.20;99.90
52058;DHT22;38063;53.210;6.504;2023-11-21T09:58:19;8.20;99.90
52058;DHT22;38063;53.210;6.504;2023-11-21T10:00:47;8.20;99.90
52058;DHT22;38063;53.210;6.504;2023-11-21T10:03:14;8.20;99.90
52058;DHT22;38063;53.210;6.504;2023-11-21T10:05:42;8.20;99.90
52058;DHT22;38063;53.210;6.504;2023-11-21T10:08:09;8.30;99.90
52058;DHT22;38063;53.210;6.504;2023-11-21T10:10:46;8.30;99.90
52058;DHT22;38063;53.210;6.504;2023-11-21T10:13:14;8.30;99.90
52058;DHT22;38063;53.210;6.504;2023-11-21T10:15:43;8.20;99.90
52058;DHT22;38063;53.210;6.504;2023-11-21T10:18:14;8.20;99.90
52058;DHT22;38063;53.210;6.504;2023-11-21T10:20:43;8.20;99.90
52058;DHT22;38063;53.210;6.504;2023-11-21T10:23:12;8.20;99.90
52058;DHT22;38063;53.210;6.504;2023-11-21T10:25:38;8.20;99.90
52058;DHT22;38063;53.210;6.504;2023-11-21T10:28:04;8.20;99.90
52058;DHT22;38063;53.210;6.504;2023-11-21T10:30:38;8.40;99.90
52058;DHT22;38063;53.210;6.504;2023-11-21T10:33:06;8.10;99.90
52058;DHT22;38063;53.210;6.504;2023-11-21T10:35:48;8.20;99.90
52058;DHT22;38063;53.210;6.504;2023-11-21T10:38:19;8.30;99.90
52058;DHT22;38063;53.210;6.504;2023-11-21T10:40:48;8.20;99.90
52058;DHT22;38063;53.210;6.504;2023-11-21T10:43:14;8.20;99.90
52058;DHT22;38063;53.210;6.504;2023-11-21T10:45:41;8.30;99.90
52058;DHT22;38063;53.210;6.504;2023-11-21T10:48:12;8.30;99.90
52058;DHT22;38063;53.210;6.504;2023-11-21T10:50:43;8.30;99.90
52058;DHT22;38063;53.210;6.504;2023-11-21T10:53:09;8.30;99.90
52058;DHT22;38063;53.210;6.504;2023-11-21T10:55:37;8.30;99.90
52058;DHT22;38063;53.210;6.504;2023-11-21T10:58:04;8.30;99.90
52058;DHT22;38063;53.210;6.504;2023-11-21T11:00:31;8.30;99.90
52058;DHT22;38063;53.210;6.504;2023-11-21T11:02:57;8.30;99.90
52058;DHT22;38063;53.210;6.504;2023-11-21T11:05:26;8.30;99.90
52058;DHT22;38063;53.210;6.504;2023-11-21T11:08:05;8.30;99.90
52058;DHT22;38063;53.210;6.504;2023-11-21T11:10:31;8.30;99.90
52058;DHT22;38063;53.210;6.504;2023-11-21T11:12:57;8.30;99.90
52058;DHT22;38063;53.210;6.504;2023-11-21T11:15:25;8.30;99.90
52058;DHT22;38063;53.210;6.504;2023-11-21T11:17:52;8.30;99.90
52058;DHT22;38063;53.210;6.504;2023-11-21T11:20:23;8.30;99.90
52058;DHT22;38063;53.210;6.504;2023-11-21T11:29:01;8.40;99.90
52058;DHT22;38063;53.210;6.504;2023-11-21T11:34:55;8.40;99.90
52058;DHT22;38063;53.210;6.504;2023-11-21T11:37:22;8.50;99.90
52058;DHT22;38063;53.210;6.504;2023-11-21T11:39:49;8.40;99.90
52058;DHT22;38063;53.210;6.504;2023-11-21T11:42:17;8.40;99.90
52058;DHT22;38063;53.210;6.504;2023-11-21T11:47:28;8.40;99.90
52058;DHT22;38063;53.210;6.504;2023-11-21T11:50:09;8.40;99.90
52058;DHT22;38063;53.210;6.504;2023-11-21T11:52:51;8.40;99.90
52058;DHT22;38063;53.210;6.504;2023-11-21T11:55:19;8.40;99.90
52058;DHT22;38063;53.210;6.504;2023-11-21T11:57:53;8.40;99.90
52058;DHT22;38063;53.210;6.504;2023-11-21T12:03:02;8.30;99.90
52058;DHT22;38063;53.210;6.504;2023-11-21T12:05:30;8.50;99.90
52058;DHT22;38063;53.210;6.504;2023-11-21T12:08:00;8.40;99.90
52058;DHT22;38063;53.210;6.504;2023-11-21T12:10:34;8.40;99.90
52058;DHT22;38063;53.210;6.504;2023-11-21T12:13:02;8.70;99.90
52058;DHT22;38063;53.210;6.504;2023-11-21T12:15:28;8.50;99.90
52058;DHT22;38063;53.210;6.504;2023-11-21T12:17:56;8.50;99.90
52058;DHT22;38063;53.210;6.504;2023-11-21T12:20:24;8.60;99.90
52058;DHT22;38063;53.210;6.504;2023-11-21T12:25:24;8.60;99.90
52058;DHT22;38063;53.210;6.504;2023-11-21T12:27:52;8.60;99.90
52058;DHT22;38063;53.210;6.504;2023-11-21T12:30:25;8.60;99.90
52058;DHT22;38063;53.210;6.504;2023-11-21T12:32:55;8.70;99.90
52058;DHT22;38063;53.210;6.504;2023-11-21T12:35:25;8.60;99.90
52058;DHT22;38063;53.210;6.504;2023-11-21T12:37:53;8.70;99.90
52058;DHT22;38063;53.210;6.504;2023-11-21T12:40:20;8.70;99.90
52058;DHT22;38063;53.210;6.504;2023-11-21T12:42:49;8.70;99.90
52058;DHT22;38063;53.210;6.504;2023-11-21T12:47:45;8.60;99.90
52058;DHT22;38063;53.210;6.504;2023-11-21T12:50:11;8.60;99.90
52058;DHT22;38063;53.210;6.504;2023-11-21T12:52:41;8.60;99.90
52058;DHT22;38063;53.210;6.504;2023-11-21T12:55:08;8.70;99.90
52058;DHT22;38063;53.210;6.504;2023-11-21T12:57:35;8.80;99.90
52058;DHT22;38063;53.210;6.504;2023-11-21T13:00:04;8.80;99.90
52058;DHT22;38063;53.210;6.504;2023-11-21T13:02:37;8.80;99.90
52058;DHT22;38063;53.210;6.504;2023-11-21T13:05:04;8.80;99.90
52058;DHT22;38063;53.210;6.504;2023-11-21T13:07:42;8.80;99.90
52058;DHT22;38063;53.210;6.504;2023-11-21T13:10:12;8.80;99.90
52058;DHT22;38063;53.210;6.504;2023-11-21T13:12:45;8.80;99.90
52058;DHT22;38063;53.210;6.504;2023-11-21T13:15:14;8.80;99.90
52058;DHT22;38063;53.210;6.504;2023-11-21T13:17:42;8.80;99.90
52058;DHT22;38063;53.210;6.504;2023-11-21T13:20:10;8.70;99.90
52058;DHT22;38063;53.210;6.504;2023-11-21T13:22:48;8.70;99.90
52058;DHT22;38063;53.210;6.504;2023-11-21T13:25:15;8.60;99.90
52058;DHT22;38063;53.210;6.504;2023-11-21T13:27:44;8.60;99.90
52058;DHT22;38063;53.210;6.504;2023-11-21T13:30:14;8.60;99.90
52058;DHT22;38063;53.210;6.504;2023-11-21T13:32:44;8.50;99.90
52058;DHT22;38063;53.210;6.504;2023-11-21T13:35:17;8.50;99.90
52058;DHT22;38063;53.210;6.504;2023-11-21T13:37:56;8.50;99.90
52058;DHT22;38063;53.210;6.504;2023-11-21T13:40:26;8.40;99.90
52058;DHT22;38063;53.210;6.504;2023-11-21T13:42:55;8.40;99.90
52058;DHT22;38063;53.210;6.504;2023-11-21T13:45:24;8.40;99.90
52058;DHT22;38063;53.210;6.504;2023-11-21T13:47:52;8.40;99.90
52058;DHT22;38063;53.210;6.504;2023-11-21T13:50:20;8.40;99.90
52058;DHT22;38063;53.210;6.504;2023-11-21T13:52:50;8.40;99.90
52058;DHT22;38063;53.210;6.504;2023-11-21T13:55:19;8.40;99.90
52058;DHT22;38063;53.210;6.504;2023-11-21T13:57:47;8.30;99.90
52058;DHT22;38063;53.210;6.504;2023-11-21T14:00:17;8.30;99.90
52058;DHT22;38063;53.210;6.504;2023-11-21T14:03:01;8.30;99.90
52058;DHT22;38063;53.210;6.504;2023-11-21T14:05:31;8.30;99.90
52058;DHT22;38063;53.210;6.504;2023-11-21T14:07:59;8.30;99.90
52058;DHT22;38063;53.210;6.504;2023-11-21T14:10:30;8.30;99.90
52058;DHT22;38063;53.210;6.504;2023-11-21T14:13:05;8.30;99.90
52058;DHT22;38063;53.210;6.504;2023-11-21T14:15:32;8.30;99.90
52058;DHT22;38063;53.210;6.504;2023-11-21T14:17:59;8.30;99.90
52058;DHT22;38063;53.210;6.504;2023-11-21T14:20:28;8.30;99.90
52058;DHT22;38063;53.210;6.504;2023-11-21T14:22:54;8.20;99.90
52058;DHT22;38063;53.210;6.504;2023-11-21T14:25:20;8.20;99.90
52058;DHT22;38063;53.210;6.504;2023-11-21T14:27:48;8.20;99.90
52058;DHT22;38063;53.210;6.504;2023-11-21T14:30:13;8.20;99.90
52058;DHT22;38063;53.210;6.504;2023-11-21T14:32:43;8.20;99.90
52058;DHT22;38063;53.210;6.504;2023-11-21T14:35:09;8.20;99.90
52058;DHT22;38063;53.210;6.504;2023-11-21T14:37:35;8.10;99.90
52058;DHT22;38063;53.210;6.504;2023-11-21T14:40:00;8.20;99.90
52058;DHT22;38063;53.210;6.504;2023-11-21T14:42:26;8.10;99.90
52058;DHT22;38063;53.210;6.504;2023-11-21T14:44:55;8.10;99.90
52058;DHT22;38063;53.210;6.504;2023-11-21T14:47:25;8.00;99.90
52058;DHT22;38063;53.210;6.504;2023-11-21T14:49:52;8.00;99.90
52058;DHT22;38063;53.210;6.504;2023-11-21T14:52:22;8.00;99.90
52058;DHT22;38063;53.210;6.504;2023-11-21T14:55:04;8.00;99.90
52058;DHT22;38063;53.210;6.504;2023-11-21T14:57:57;7.90;99.90
52058;DHT22;38063;53.210;6.504;2023-11-21T15:00:27;7.90;99.90
52058;DHT22;38063;53.210;6.504;2023-11-21T15:02:59;7.90;99.90
52058;DHT22;38063;53.210;6.504;2023-11-21T15:05:26;7.90;99.90
52058;DHT22;38063;53.210;6.504;2023-11-21T15:07:53;7.90;99.90
52058;DHT22;38063;53.210;6.504;2023-11-21T15:10:23;7.80;99.90
52058;DHT22;38063;53.210;6.504;2023-11-21T15:13:03;7.80;99.90
52058;DHT22;38063;53.210;6.504;2023-11-21T15:15:29;7.80;99.90
52058;DHT22;38063;53.210;6.504;2023-11-21T15:17:57;7.80;99.90
52058;DHT22;38063;53.210;6.504;2023-11-21T15:20:23;7.80;99.90
52058;DHT22;38063;53.210;6.504;2023-11-21T15:22:48;7.80;99.90
52058;DHT22;38063;53.210;6.504;2023-11-21T15:25:14;7.80;99.90
52058;DHT22;38063;53.210;6.504;2023-11-21T15:27:40;7.80;99.90
52058;DHT22;38063;53.210;6.504;2023-11-21T15:30:07;7.80;99.90
52058;DHT22;38063;53.210;6.504;2023-11-21T15:32:32;7.70;99.90
52058;DHT22;38063;53.210;6.504;2023-11-21T15:34:58;7.70;99.90
52058;DHT22;38063;53.210;6.504;2023-11-21T15:37:24;7.70;99.90
52058;DHT22;38063;53.210;6.504;2023-11-21T15:39:51;7.70;99.90
52058;DHT22;38063;53.210;6.504;2023-11-21T15:42:17;7.80;99.90
52058;DHT22;38063;53.210;6.504;2023-11-21T15:44:43;7.90;99.90
52058;DHT22;38063;53.210;6.504;2023-11-21T15:47:08;7.60;99.90
52058;DHT22;38063;53.210;6.504;2023-11-21T15:49:34;7.60;99.90
52058;DHT22;38063;53.210;6.504;2023-11-21T15:52:02;7.60;99.90
52058;DHT22;38063;53.210;6.504;2023-11-21T15:54:29;7.60;99.90
52058;DHT22;38063;53.210;6.504;2023-11-21T15:56:56;7.50;99.90
52058;DHT22;38063;53.210;6.504;2023-11-21T15:59:23;7.50;99.90
52058;DHT22;38063;53.210;6.504;2023-11-21T16:01:52;7.50;99.90
52058;DHT22;38063;53.210;6.504;2023-11-21T16:04:18;7.30;99.90
52058;DHT22;38063;53.210;6.504;2023-11-21T16:06:47;7.40;99.90